Time;durP1;ratioP1;P1;durP2;ratioP2;P2;SDS_P1;SDS_P2;PMS_P1;PMS_P2;Temp;Humidity;BMP_temperature;BMP_pressure;BME280_temperature;BME280_humidity;BME280_pressure;Samples;Min_cycle;Max_cycle;Signal;HPM_P1;HPM_P2
2021/08/13 00:01:39;;;;;;;;;;;19.50;99.90;;;;;;1874620;76;20179;-68
2021/08/13 00:04:05;;;;;;;;;;;19.50;99.90;;;;;;1865841;76;20182;-69
2021/08/13 00:06:32;;;;;;;;;;;19.50;99.90;;;;;;1890871;75;20418;-69
2021/08/13 00:08:59;;;;;;;;;;;19.40;99.90;;;;;;1878738;75;20294;-68
2021/08/13 00:11:26;;;;;;;;;;;19.40;99.90;;;;;;1896229;75;20199;-69
2021/08/13 00:13:53;;;;;;;;;;;19.40;99.90;;;;;;1887881;75;20476;-68
2021/08/13 00:16:19;;;;;;;;;;;19.40;99.90;;;;;;1879454;75;20217;-69
2021/08/13 00:18:46;;;;;;;;;;;19.40;99.90;;;;;;1879721;75;20497;-68
2021/08/13 00:21:13;;;;;;;;;;;19.40;99.90;;;;;;1880145;75;20224;-69
2021/08/13 00:23:40;;;;;;;;;;;19.40;99.90;;;;;;1855864;76;20458;-69
2021/08/13 00:26:07;;;;;;;;;;;19.50;99.90;;;;;;1877740;75;20182;-69
2021/08/13 00:28:34;;;;;;;;;;;19.50;99.90;;;;;;1868627;76;20416;-69
2021/08/13 00:31:00;;;;;;;;;;;19.40;99.90;;;;;;1872234;76;20522;-68
2021/08/13 00:33:27;;;;;;;;;;;19.30;99.90;;;;;;1875200;76;20189;-68
2021/08/13 00:35:54;;;;;;;;;;;19.30;99.90;;;;;;1876358;75;20507;-70
2021/08/13 00:38:21;;;;;;;;;;;19.30;99.90;;;;;;1878596;76;20136;-68
2021/08/13 00:40:48;;;;;;;;;;;19.30;99.90;;;;;;1875900;76;20488;-69
2021/08/13 00:43:34;;;;;;;;;;;19.20;99.90;;;;;;1873430;75;20419;-68
2021/08/13 00:46:01;;;;;;;;;;;19.20;99.90;;;;;;1908643;74;20107;-69
2021/08/13 00:48:28;;;;;;;;;;;19.10;99.90;;;;;;1895720;74;20148;-69
2021/08/13 00:50:55;;;;;;;;;;;19.10;99.90;;;;;;1896313;74;20416;-70
2021/08/13 00:53:22;;;;;;;;;;;19.00;99.90;;;;;;1903597;73;20206;-68
2021/08/13 00:55:51;;;;;;;;;;;18.90;99.90;;;;;;1915561;74;20139;-70
2021/08/13 00:58:18;;;;;;;;;;;18.80;99.90;;;;;;1918921;74;20233;-70
2021/08/13 01:00:45;;;;;;;;;;;18.90;99.90;;;;;;1907989;74;20235;-69
2021/08/13 01:03:13;;;;;;;;;;;18.80;99.90;;;;;;1908338;74;20162;-68
2021/08/13 01:05:39;;;;;;;;;;;18.80;99.90;;;;;;1913423;74;20166;-69
2021/08/13 01:08:06;;;;;;;;;;;18.70;99.90;;;;;;1913166;75;20173;-68
2021/08/13 01:10:35;;;;;;;;;;;18.70;99.90;;;;;;1916705;74;20200;-69
2021/08/13 01:13:06;;;;;;;;;;;18.70;99.90;;;;;;1912976;74;20154;-69
2021/08/13 01:15:34;;;;;;;;;;;18.70;99.90;;;;;;1891990;74;20181;-69
2021/08/13 01:18:05;;;;;;;;;;;18.70;99.90;;;;;;1901240;74;20201;-68
2021/08/13 01:20:37;;;;;;;;;;;18.50;99.90;;;;;;1908866;73;20389;-68
2021/08/13 01:23:05;;;;;;;;;;;18.60;99.90;;;;;;1820392;77;20429;-67
2021/08/13 01:25:34;;;;;;;;;;;18.50;99.90;;;;;;1839428;77;20247;-69
2021/08/13 01:28:02;;;;;;;;;;;18.40;99.90;;;;;;1858278;77;20173;-69
2021/08/13 01:30:29;;;;;;;;;;;18.40;99.90;;;;;;1837886;77;20156;-69
2021/08/13 01:33:09;;;;;;;;;;;18.50;99.90;;;;;;1837941;77;20179;-69
2021/08/13 01:35:36;;;;;;;;;;;18.40;99.90;;;;;;1835012;77;20183;-70
2021/08/13 01:38:08;;;;;;;;;;;18.30;99.90;;;;;;1841742;77;20173;-70
2021/08/13 01:40:35;;;;;;;;;;;18.40;99.90;;;;;;1856376;77;20551;-69
2021/08/13 01:43:02;;;;;;;;;;;18.30;99.90;;;;;;1861689;76;20163;-69
2021/08/13 01:45:30;;;;;;;;;;;18.30;99.90;;;;;;1856841;77;20173;-69
2021/08/13 01:47:58;;;;;;;;;;;18.20;99.90;;;;;;1850196;77;20228;-68
2021/08/13 01:50:25;;;;;;;;;;;18.30;99.90;;;;;;1850115;76;20730;-68
2021/08/13 01:52:53;;;;;;;;;;;18.30;99.90;;;;;;1851125;76;20497;-69
2021/08/13 01:55:20;;;;;;;;;;;18.20;99.90;;;;;;1833857;76;20473;-69
2021/08/13 01:57:46;;;;;;;;;;;18.20;99.90;;;;;;1858721;75;20227;-68
2021/08/13 02:00:17;;;;;;;;;;;18.10;99.90;;;;;;1851000;77;20223;-68
2021/08/13 02:02:44;;;;;;;;;;;18.10;99.90;;;;;;1847489;77;20187;-68
2021/08/13 02:05:11;;;;;;;;;;;18.00;99.90;;;;;;1847313;77;20210;-68
2021/08/13 02:07:39;;;;;;;;;;;18.00;99.90;;;;;;1845095;77;20183;-68
2021/08/13 02:10:07;;;;;;;;;;;18.10;99.90;;;;;;1849058;77;20202;-69
2021/08/13 02:12:34;;;;;;;;;;;18.00;99.90;;;;;;1844041;77;20237;-68
2021/08/13 02:15:01;;;;;;;;;;;18.00;99.90;;;;;;1851028;77;20224;-69
2021/08/13 02:17:30;;;;;;;;;;;18.00;99.90;;;;;;1843602;77;20195;-69
2021/08/13 02:19:58;;;;;;;;;;;17.90;99.90;;;;;;1838532;77;20171;-69
2021/08/13 02:22:25;;;;;;;;;;;17.90;99.90;;;;;;1846549;77;20137;-68
2021/08/13 02:24:52;;;;;;;;;;;17.90;99.90;;;;;;1855640;77;20156;-68
2021/08/13 02:27:19;;;;;;;;;;;17.90;99.90;;;;;;1845005;77;20162;-68
2021/08/13 02:29:46;;;;;;;;;;;17.80;99.90;;;;;;1862188;77;20114;-67
2021/08/13 02:32:13;;;;;;;;;;;17.90;99.90;;;;;;1854607;77;20139;-68
2021/08/13 02:34:39;;;;;;;;;;;17.90;99.90;;;;;;1860215;77;20158;-67
2021/08/13 02:37:14;;;;;;;;;;;17.80;99.90;;;;;;1852272;77;20626;-68
2021/08/13 02:39:42;;;;;;;;;;;17.90;99.90;;;;;;1833096;77;20512;-70
2021/08/13 02:42:11;;;;;;;;;;;17.80;99.90;;;;;;1860174;77;20177;-70
2021/08/13 02:44:39;;;;;;;;;;;17.80;99.90;;;;;;1844855;77;20830;-69
2021/08/13 02:47:07;;;;;;;;;;;17.80;99.90;;;;;;1863739;71;20171;-66
2021/08/13 02:49:36;;;;;;;;;;;17.80;99.90;;;;;;1886859;74;20436;-68
2021/08/13 02:52:04;;;;;;;;;;;17.70;99.90;;;;;;1879747;74;20155;-68
2021/08/13 02:54:32;;;;;;;;;;;17.70;99.90;;;;;;1879576;75;20142;-68
2021/08/13 02:57:00;;;;;;;;;;;17.80;99.90;;;;;;1905183;75;20156;-68
2021/08/13 02:59:30;;;;;;;;;;;17.70;99.90;;;;;;1903363;75;20409;-67
2021/08/13 03:01:58;;;;;;;;;;;17.70;99.90;;;;;;1859353;75;20205;-67
2021/08/13 03:04:26;;;;;;;;;;;17.70;99.90;;;;;;1880492;75;20132;-67
2021/08/13 03:06:53;;;;;;;;;;;17.70;99.90;;;;;;1880731;75;20105;-67
2021/08/13 03:09:21;;;;;;;;;;;17.70;99.90;;;;;;1890926;75;20281;-67
2021/08/13 03:11:48;;;;;;;;;;;17.80;99.90;;;;;;1911311;75;20149;-67
2021/08/13 03:14:15;;;;;;;;;;;17.90;99.90;;;;;;1901589;75;20188;-67
2021/08/13 03:16:42;;;;;;;;;;;18.00;99.90;;;;;;1892051;75;20175;-66
2021/08/13 03:19:10;;;;;;;;;;;18.10;99.90;;;;;;1880301;76;20420;-66
2021/08/13 03:21:37;;;;;;;;;;;18.20;99.90;;;;;;1889387;75;20472;-66
2021/08/13 03:24:04;;;;;;;;;;;18.20;99.90;;;;;;1881086;75;20183;-66
2021/08/13 03:26:31;;;;;;;;;;;18.40;99.90;;;;;;1892984;75;20169;-66
2021/08/13 03:28:58;;;;;;;;;;;18.50;99.90;;;;;;1912110;75;20154;-66
2021/08/13 03:31:26;;;;;;;;;;;18.40;99.90;;;;;;1911420;75;20285;-66
2021/08/13 03:33:53;;;;;;;;;;;18.20;99.90;;;;;;1900727;74;20173;-66
2021/08/13 03:36:20;;;;;;;;;;;18.10;99.90;;;;;;1911156;75;20126;-66
2021/08/13 03:38:46;;;;;;;;;;;18.10;99.90;;;;;;1912948;75;20169;-66
2021/08/13 03:41:15;;;;;;;;;;;18.00;99.90;;;;;;1908699;75;20169;-66
2021/08/13 03:43:42;;;;;;;;;;;18.00;99.90;;;;;;1871595;75;20166;-67
2021/08/13 03:46:08;;;;;;;;;;;17.90;99.90;;;;;;1865186;76;20131;-67
2021/08/13 03:48:35;;;;;;;;;;;18.00;99.90;;;;;;1854373;76;20132;-67
2021/08/13 03:51:02;;;;;;;;;;;18.00;99.90;;;;;;1919316;75;20437;-68
2021/08/13 03:53:29;;;;;;;;;;;17.90;99.90;;;;;;1898368;75;20126;-67
2021/08/13 03:55:56;;;;;;;;;;;17.90;99.90;;;;;;1917504;75;20149;-67
2021/08/13 03:58:23;;;;;;;;;;;17.80;99.90;;;;;;1913539;75;20226;-67
2021/08/13 04:00:50;;;;;;;;;;;17.90;99.90;;;;;;1883205;75;20162;-67
2021/08/13 04:03:16;;;;;;;;;;;17.90;99.90;;;;;;1897206;75;20106;-66
2021/08/13 04:05:44;;;;;;;;;;;18.00;99.90;;;;;;1913848;75;20122;-66
2021/08/13 04:08:10;;;;;;;;;;;18.10;99.90;;;;;;1911516;75;20185;-67
2021/08/13 04:10:37;;;;;;;;;;;18.10;99.90;;;;;;1887011;75;20176;-67
2021/08/13 04:13:04;;;;;;;;;;;17.80;99.90;;;;;;1896826;75;20317;-67
2021/08/13 04:15:31;;;;;;;;;;;17.80;99.90;;;;;;1858407;76;20185;-66
2021/08/13 04:17:58;;;;;;;;;;;17.70;99.90;;;;;;1853463;76;20178;-67
2021/08/13 04:20:24;;;;;;;;;;;17.50;99.90;;;;;;1893310;75;20200;-67
2021/08/13 04:22:51;;;;;;;;;;;17.50;99.90;;;;;;1900827;75;20232;-66
2021/08/13 04:25:18;;;;;;;;;;;17.50;99.90;;;;;;1883200;75;20129;-67
2021/08/13 04:27:45;;;;;;;;;;;17.50;99.90;;;;;;1878992;75;20488;-67
2021/08/13 04:30:13;;;;;;;;;;;17.50;99.90;;;;;;1860411;75;20178;-67
2021/08/13 04:32:40;;;;;;;;;;;17.60;99.90;;;;;;1867601;75;20178;-67
2021/08/13 04:35:08;;;;;;;;;;;17.80;99.90;;;;;;1913289;75;20208;-67
2021/08/13 04:37:35;;;;;;;;;;;18.00;99.90;;;;;;1890933;75;20321;-67
2021/08/13 04:40:01;;;;;;;;;;;18.00;99.90;;;;;;1895280;75;20173;-67
2021/08/13 04:42:28;;;;;;;;;;;17.90;99.90;;;;;;1910323;75;20226;-67
2021/08/13 04:44:55;;;;;;;;;;;18.00;99.90;;;;;;1861835;75;20266;-67
2021/08/13 04:47:22;;;;;;;;;;;18.00;99.90;;;;;;1861770;76;20183;-67
2021/08/13 04:49:49;;;;;;;;;;;17.90;99.90;;;;;;1862730;75;20130;-67
2021/08/13 04:52:17;;;;;;;;;;;18.00;99.90;;;;;;1879724;75;20245;-67
2021/08/13 04:54:47;;;;;;;;;;;18.10;99.90;;;;;;1879134;75;20480;-67
2021/08/13 04:57:12;;;;;;;;;;;18.10;99.90;;;;;;1858441;76;20167;-67
2021/08/13 04:59:39;;;;;;;;;;;18.20;99.90;;;;;;1907248;75;20173;-67
2021/08/13 05:02:06;;;;;;;;;;;18.30;99.90;;;;;;1881187;75;20179;-67
2021/08/13 05:04:33;;;;;;;;;;;18.40;99.90;;;;;;1900375;75;20185;-67
2021/08/13 05:07:00;;;;;;;;;;;18.40;99.90;;;;;;1913016;75;20180;-67
2021/08/13 05:09:26;;;;;;;;;;;18.50;99.90;;;;;;1890692;75;20496;-67
2021/08/13 05:11:53;;;;;;;;;;;18.40;99.90;;;;;;1895128;75;20439;-67
2021/08/13 05:14:20;;;;;;;;;;;18.50;99.90;;;;;;1878539;75;20218;-67
2021/08/13 05:16:47;;;;;;;;;;;18.40;99.90;;;;;;1876506;76;20187;-66
2021/08/13 05:19:13;;;;;;;;;;;18.50;99.90;;;;;;1874351;75;20199;-66
2021/08/13 05:21:40;;;;;;;;;;;18.50;99.90;;;;;;1905684;75;20218;-67
2021/08/13 05:24:07;;;;;;;;;;;18.40;99.90;;;;;;1912893;75;20165;-67
2021/08/13 05:26:34;;;;;;;;;;;18.50;99.90;;;;;;1906822;75;20222;-67
2021/08/13 05:29:01;;;;;;;;;;;18.50;99.90;;;;;;1905112;75;20213;-67
2021/08/13 05:31:27;;;;;;;;;;;18.60;99.90;;;;;;1897837;75;20178;-67
2021/08/13 05:33:54;;;;;;;;;;;18.70;99.90;;;;;;1887698;75;20200;-68
2021/08/13 05:36:21;;;;;;;;;;;18.70;99.90;;;;;;1896000;75;20189;-68
2021/08/13 05:38:48;;;;;;;;;;;18.70;99.90;;;;;;1888779;75;20163;-67
2021/08/13 05:41:15;;;;;;;;;;;18.80;99.90;;;;;;1894637;75;20920;-68
2021/08/13 05:43:41;;;;;;;;;;;18.80;99.90;;;;;;1895589;75;20246;-67
2021/08/13 05:46:08;;;;;;;;;;;18.80;99.90;;;;;;1860106;75;20484;-67
2021/08/13 05:48:35;;;;;;;;;;;18.80;99.90;;;;;;1882481;75;20201;-68
2021/08/13 05:51:02;;;;;;;;;;;18.80;99.90;;;;;;1899283;75;20505;-67
2021/08/13 05:53:29;;;;;;;;;;;18.80;99.90;;;;;;1895023;75;20206;-68
2021/08/13 05:55:55;;;;;;;;;;;18.80;99.90;;;;;;1900510;75;20827;-68
2021/08/13 05:58:22;;;;;;;;;;;18.90;99.90;;;;;;1913100;75;20204;-67
2021/08/13 06:00:49;;;;;;;;;;;18.90;99.90;;;;;;1905618;75;20157;-67
2021/08/13 06:03:16;;;;;;;;;;;18.90;99.90;;;;;;1909659;75;20207;-68
2021/08/13 06:05:43;;;;;;;;;;;18.90;99.90;;;;;;1878274;75;20164;-67
2021/08/13 06:08:09;;;;;;;;;;;18.90;99.90;;;;;;1880657;75;20494;-67
2021/08/13 06:10:36;;;;;;;;;;;19.00;99.90;;;;;;1878058;75;20250;-67
2021/08/13 06:13:03;;;;;;;;;;;19.00;99.90;;;;;;1882546;75;20501;-67
2021/08/13 06:15:32;;;;;;;;;;;19.00;99.90;;;;;;1872855;75;20130;-67
2021/08/13 06:17:59;;;;;;;;;;;19.10;99.90;;;;;;1876847;76;20491;-67
2021/08/13 06:20:26;;;;;;;;;;;19.10;99.90;;;;;;1882866;75;20126;-68
2021/08/13 06:22:53;;;;;;;;;;;19.20;99.90;;;;;;1880156;76;20171;-68
2021/08/13 06:25:20;;;;;;;;;;;19.20;99.90;;;;;;1877669;75;20164;-67
2021/08/13 06:27:47;;;;;;;;;;;19.30;99.90;;;;;;1865898;76;20206;-67
2021/08/13 06:30:15;;;;;;;;;;;19.30;99.90;;;;;;1879856;76;20167;-67
2021/08/13 06:32:42;;;;;;;;;;;19.30;99.90;;;;;;1861539;76;20186;-67
2021/08/13 06:35:09;;;;;;;;;;;19.40;99.90;;;;;;1880414;76;20104;-67
2021/08/13 06:37:45;;;;;;;;;;;19.50;99.90;;;;;;1879201;75;20168;-66
2021/08/13 06:40:12;;;;;;;;;;;19.50;99.90;;;;;;1878767;75;20183;-67
2021/08/13 06:42:40;;;;;;;;;;;19.50;99.90;;;;;;1873457;75;20179;-67
2021/08/13 06:45:08;;;;;;;;;;;19.60;99.90;;;;;;1877010;75;20353;-67
2021/08/13 06:47:34;;;;;;;;;;;19.60;99.90;;;;;;1880104;75;20246;-67
2021/08/13 06:50:01;;;;;;;;;;;19.70;99.90;;;;;;1877197;75;20247;-67
2021/08/13 06:52:28;;;;;;;;;;;19.70;99.90;;;;;;1880084;75;20203;-67
2021/08/13 06:54:55;;;;;;;;;;;19.70;99.90;;;;;;1880486;75;20128;-66
2021/08/13 06:57:22;;;;;;;;;;;19.80;99.90;;;;;;1878807;75;20186;-66
2021/08/13 06:59:48;;;;;;;;;;;19.80;99.90;;;;;;1880853;75;20194;-66
2021/08/13 07:02:15;;;;;;;;;;;19.90;99.90;;;;;;1873691;75;20186;-66
2021/08/13 07:04:42;;;;;;;;;;;19.90;99.90;;;;;;1877261;75;20168;-66
2021/08/13 07:07:09;;;;;;;;;;;19.90;99.90;;;;;;1878404;75;20239;-66
2021/08/13 07:09:36;;;;;;;;;;;20.00;99.90;;;;;;1880441;75;20807;-66
2021/08/13 07:12:03;;;;;;;;;;;20.00;99.90;;;;;;1878417;75;20190;-66
2021/08/13 07:14:30;;;;;;;;;;;20.00;99.90;;;;;;1876969;75;20187;-66
2021/08/13 07:16:56;;;;;;;;;;;20.00;99.90;;;;;;1878176;75;20179;-66
2021/08/13 07:19:23;;;;;;;;;;;20.10;99.90;;;;;;1881280;75;20285;-66
2021/08/13 07:21:50;;;;;;;;;;;20.20;99.90;;;;;;1884695;75;20460;-66
2021/08/13 07:24:21;;;;;;;;;;;20.20;99.90;;;;;;1882762;75;20183;-66
2021/08/13 07:26:45;;;;;;;;;;;20.30;99.90;;;;;;1878584;75;20183;-66
2021/08/13 07:29:12;;;;;;;;;;;20.30;99.90;;;;;;1881484;75;20177;-66
2021/08/13 07:31:39;;;;;;;;;;;20.30;99.90;;;;;;1877342;75;20188;-67
2021/08/13 07:34:06;;;;;;;;;;;20.40;99.90;;;;;;1877747;75;20404;-66
2021/08/13 07:36:32;;;;;;;;;;;20.50;99.90;;;;;;1877350;75;20257;-66
2021/08/13 07:38:59;;;;;;;;;;;20.50;99.90;;;;;;1879699;75;20312;-66
2021/08/13 07:41:26;;;;;;;;;;;20.60;99.90;;;;;;1879739;75;20222;-69
2021/08/13 07:43:53;;;;;;;;;;;20.60;99.90;;;;;;1874095;75;20184;-67
2021/08/13 07:46:20;;;;;;;;;;;20.70;99.90;;;;;;1874687;75;20217;-67
2021/08/13 07:48:46;;;;;;;;;;;20.60;99.90;;;;;;1868851;75;20183;-67
2021/08/13 07:51:13;;;;;;;;;;;20.70;99.90;;;;;;1874102;75;20176;-67
2021/08/13 07:53:40;;;;;;;;;;;20.70;99.90;;;;;;1873334;75;20477;-67
2021/08/13 07:56:07;;;;;;;;;;;20.80;99.90;;;;;;1878905;75;20177;-67
2021/08/13 07:58:34;;;;;;;;;;;20.90;99.90;;;;;;1873020;75;20163;-67
2021/08/13 08:01:01;;;;;;;;;;;20.90;99.90;;;;;;1889567;75;20180;-67
2021/08/13 08:03:27;;;;;;;;;;;20.90;99.90;;;;;;1874207;75;20128;-67
2021/08/13 08:05:54;;;;;;;;;;;20.90;99.90;;;;;;1879717;75;20964;-67
2021/08/13 08:08:21;;;;;;;;;;;20.90;99.90;;;;;;1878467;75;20213;-67
2021/08/13 08:10:48;;;;;;;;;;;20.90;99.90;;;;;;1879609;76;20410;-68
2021/08/13 08:13:15;;;;;;;;;;;20.90;99.90;;;;;;1879376;76;20187;-68
2021/08/13 08:15:42;;;;;;;;;;;21.00;99.90;;;;;;1910962;75;20110;-69
2021/08/13 08:18:09;;;;;;;;;;;21.00;99.90;;;;;;1913252;75;20166;-67
2021/08/13 08:20:36;;;;;;;;;;;21.10;99.90;;;;;;1911101;75;20122;-68
2021/08/13 08:23:03;;;;;;;;;;;21.10;99.90;;;;;;1905226;75;20176;-68
2021/08/13 08:25:30;;;;;;;;;;;21.10;99.90;;;;;;1875772;75;20159;-68
2021/08/13 08:27:57;;;;;;;;;;;21.20;99.90;;;;;;1879764;76;20186;-68
2021/08/13 08:30:24;;;;;;;;;;;21.20;99.90;;;;;;1893776;75;20184;-68
2021/08/13 08:32:50;;;;;;;;;;;21.20;99.90;;;;;;1877978;76;20219;-66
2021/08/13 08:35:17;;;;;;;;;;;21.20;99.90;;;;;;1880379;76;20179;-67
2021/08/13 08:37:54;;;;;;;;;;;21.30;99.90;;;;;;1879998;76;20210;-66
2021/08/13 08:40:25;;;;;;;;;;;21.20;99.90;;;;;;1880326;76;20167;-68
2021/08/13 08:42:54;;;;;;;;;;;21.30;99.90;;;;;;1873793;75;20171;-67
2021/08/13 08:45:21;;;;;;;;;;;21.30;99.90;;;;;;1847004;78;20151;-67
2021/08/13 08:47:48;;;;;;;;;;;21.30;99.90;;;;;;1874965;72;20211;-70
2021/08/13 08:50:15;;;;;;;;;;;21.40;99.90;;;;;;1924431;74;20489;-69
2021/08/13 08:52:43;;;;;;;;;;;21.50;99.90;;;;;;1908430;74;20182;-69
2021/08/13 08:55:12;;;;;;;;;;;21.50;99.90;;;;;;1896293;74;20179;-70
2021/08/13 08:57:40;;;;;;;;;;;21.60;99.90;;;;;;1916104;73;20179;-70
2021/08/13 09:00:08;;;;;;;;;;;21.60;99.90;;;;;;1909932;74;20184;-70
2021/08/13 09:02:35;;;;;;;;;;;21.50;99.90;;;;;;1908713;74;20176;-70
2021/08/13 09:05:02;;;;;;;;;;;21.60;99.90;;;;;;1904966;74;20189;-69
2021/08/13 09:07:29;;;;;;;;;;;21.60;99.90;;;;;;1912486;74;20156;-69
2021/08/13 09:09:55;;;;;;;;;;;21.70;99.90;;;;;;1911031;74;20243;-69
2021/08/13 09:12:22;;;;;;;;;;;21.80;99.90;;;;;;1906953;73;20525;-70
2021/08/13 09:14:49;;;;;;;;;;;21.90;99.90;;;;;;1915641;74;20187;-74
2021/08/13 09:17:16;;;;;;;;;;;22.00;99.90;;;;;;1911624;73;20422;-71
2021/08/13 09:19:44;;;;;;;;;;;21.90;99.90;;;;;;1921916;74;20155;-72
2021/08/13 09:22:13;;;;;;;;;;;22.00;99.90;;;;;;1916982;74;20161;-73
2021/08/13 09:24:40;;;;;;;;;;;22.10;99.90;;;;;;1922888;74;20505;-73
2021/08/13 09:27:17;;;;;;;;;;;22.00;99.90;;;;;;1922792;73;20156;-71
2021/08/13 09:30:02;;;;;;;;;;;22.10;99.90;;;;;;1915410;73;20514;-71
2021/08/13 09:32:29;;;;;;;;;;;22.10;99.90;;;;;;1920327;73;20167;-70
2021/08/13 09:34:56;;;;;;;;;;;22.20;99.90;;;;;;1918418;73;20317;-70
2021/08/13 09:37:23;;;;;;;;;;;22.30;99.90;;;;;;1916833;74;20165;-71
2021/08/13 09:39:54;;;;;;;;;;;22.30;99.90;;;;;;1919740;74;20130;-71
2021/08/13 09:42:20;;;;;;;;;;;22.30;99.90;;;;;;1911127;74;20184;-71
2021/08/13 09:44:49;;;;;;;;;;;22.30;99.90;;;;;;1917733;73;20216;-71
2021/08/13 09:47:17;;;;;;;;;;;22.30;99.90;;;;;;1932216;73;20116;-71
2021/08/13 09:49:45;;;;;;;;;;;22.20;99.90;;;;;;1907339;74;20133;-71
2021/08/13 09:52:15;;;;;;;;;;;22.30;99.90;;;;;;1893414;74;20413;-72
2021/08/13 09:54:43;;;;;;;;;;;22.40;99.90;;;;;;1911783;74;20561;-70
2021/08/13 09:57:11;;;;;;;;;;;22.30;99.90;;;;;;1907456;74;20390;-71
2021/08/13 09:59:39;;;;;;;;;;;22.40;99.90;;;;;;1917529;74;20488;-71
2021/08/13 10:02:12;;;;;;;;;;;22.40;99.90;;;;;;1900520;74;20128;-72
2021/08/13 10:04:40;;;;;;;;;;;22.50;99.90;;;;;;1902499;74;20161;-71
2021/08/13 10:07:07;;;;;;;;;;;22.60;99.90;;;;;;1905963;74;20221;-72
2021/08/13 10:09:34;;;;;;;;;;;22.60;99.90;;;;;;1906458;74;20122;-71
2021/08/13 10:12:02;;;;;;;;;;;22.50;99.90;;;;;;1912531;74;20180;-72
2021/08/13 10:14:30;;;;;;;;;;;22.50;99.90;;;;;;1923373;74;20129;-70
2021/08/13 10:17:11;;;;;;;;;;;22.50;99.90;;;;;;1904281;74;20209;-69
2021/08/13 10:19:45;;;;;;;;;;;22.70;99.90;;;;;;1894587;74;20156;-68
2021/08/13 10:22:12;;;;;;;;;;;22.80;99.90;;;;;;1921047;74;20266;-69
2021/08/13 10:24:39;;;;;;;;;;;23.10;99.90;;;;;;1891830;74;20175;-69
2021/08/13 10:27:07;;;;;;;;;;;23.20;99.90;;;;;;1898612;74;20226;-68
2021/08/13 10:29:34;;;;;;;;;;;23.10;99.90;;;;;;1890766;76;20198;-69
2021/08/13 10:32:01;;;;;;;;;;;23.20;99.90;;;;;;1903430;74;20189;-69
2021/08/13 10:34:27;;;;;;;;;;;23.30;99.90;;;;;;1923975;74;20165;-68
2021/08/13 10:36:55;;;;;;;;;;;23.30;99.90;;;;;;1923296;74;20399;-69
2021/08/13 10:39:23;;;;;;;;;;;23.30;99.90;;;;;;1917103;74;20964;-68
2021/08/13 10:41:54;;;;;;;;;;;23.30;99.90;;;;;;1920713;74;20454;-69
2021/08/13 10:44:22;;;;;;;;;;;23.40;99.90;;;;;;1907318;74;20175;-68
2021/08/13 10:46:50;;;;;;;;;;;23.20;99.90;;;;;;1918644;74;20231;-68
2021/08/13 10:49:19;;;;;;;;;;;23.20;99.90;;;;;;1919178;73;20775;-73
2021/08/13 10:51:46;;;;;;;;;;;23.60;99.90;;;;;;1923021;74;20169;-74
2021/08/13 10:54:14;;;;;;;;;;;23.80;99.90;;;;;;1924057;74;20127;-75
2021/08/13 10:56:42;;;;;;;;;;;23.80;99.90;;;;;;1922525;73;20177;-74
2021/08/13 10:59:09;;;;;;;;;;;23.60;99.90;;;;;;1916232;74;20129;-75
2021/08/13 11:01:36;;;;;;;;;;;23.70;99.90;;;;;;1923403;74;20180;-74
2021/08/13 11:04:05;;;;;;;;;;;23.90;99.90;;;;;;1921766;74;20106;-70
2021/08/13 11:06:39;;;;;;;;;;;23.80;99.90;;;;;;1917919;74;20315;-68
2021/08/13 11:09:10;;;;;;;;;;;23.80;99.90;;;;;;1913889;74;20450;-70
2021/08/13 11:11:53;;;;;;;;;;;24.00;99.90;;;;;;1914982;74;20157;-69
2021/08/13 11:14:33;;;;;;;;;;;24.00;99.90;;;;;;1900698;74;20225;-70
2021/08/13 11:17:01;;;;;;;;;;;23.90;99.90;;;;;;1890664;76;20286;-69
2021/08/13 11:19:28;;;;;;;;;;;23.80;99.90;;;;;;1903461;74;20169;-70
2021/08/13 11:21:58;;;;;;;;;;;23.90;99.90;;;;;;1923752;74;20159;-70
2021/08/13 11:24:29;;;;;;;;;;;23.90;99.90;;;;;;1919269;73;20285;-69
2021/08/13 11:27:00;;;;;;;;;;;24.00;99.90;;;;;;1919060;74;20176;-70
2021/08/13 11:29:34;;;;;;;;;;;24.10;99.90;;;;;;1905773;74;20180;-72
2021/08/13 11:32:09;;;;;;;;;;;24.20;99.90;;;;;;1890550;76;20194;-72
2021/08/13 11:35:01;;;;;;;;;;;24.20;99.90;;;;;;1896591;74;20221;-78
2021/08/13 11:37:33;;;;;;;;;;;24.20;99.90;;;;;;1893565;74;20140;-73
2021/08/13 11:40:07;;;;;;;;;;;24.30;99.90;;;;;;1911078;74;20112;-73
2021/08/13 11:42:35;;;;;;;;;;;24.40;99.90;;;;;;1918117;73;20424;-72
2021/08/13 11:45:04;;;;;;;;;;;24.40;99.90;;;;;;1916251;73;20165;-71
2021/08/13 11:47:31;;;;;;;;;;;24.40;99.90;;;;;;1918125;74;20226;-71
2021/08/13 11:50:00;;;;;;;;;;;24.10;99.90;;;;;;1914270;74;20173;-71
2021/08/13 11:52:28;;;;;;;;;;;24.20;99.90;;;;;;1921994;74;20165;-71
2021/08/13 11:54:54;;;;;;;;;;;24.20;99.90;;;;;;1923882;74;20220;-71
2021/08/13 11:57:22;;;;;;;;;;;24.20;99.90;;;;;;1923313;74;20172;-71
2021/08/13 11:59:50;;;;;;;;;;;24.30;99.90;;;;;;1923721;74;20149;-70
2021/08/13 12:02:28;;;;;;;;;;;24.20;99.90;;;;;;1906676;74;20171;-71
2021/08/13 12:05:05;;;;;;;;;;;24.30;99.90;;;;;;1904729;74;20179;-70
2021/08/13 12:07:32;;;;;;;;;;;24.20;99.90;;;;;;1903322;74;20158;-73
2021/08/13 12:10:00;;;;;;;;;;;24.20;99.90;;;;;;1916118;73;20213;-72
2021/08/13 12:12:30;;;;;;;;;;;24.30;99.90;;;;;;1912756;74;20173;-73
2021/08/13 12:14:57;;;;;;;;;;;24.40;99.90;;;;;;1902848;74;20206;-71
2021/08/13 12:17:24;;;;;;;;;;;24.40;99.90;;;;;;1916396;74;20112;-73
2021/08/13 12:19:53;;;;;;;;;;;24.30;99.90;;;;;;1893986;74;20155;-72
2021/08/13 12:22:21;;;;;;;;;;;24.30;99.90;;;;;;1921058;74;20543;-72
2021/08/13 12:24:49;;;;;;;;;;;24.50;99.90;;;;;;1906734;74;20241;-71
2021/08/13 12:27:16;;;;;;;;;;;24.40;99.90;;;;;;1874518;76;20390;-72
2021/08/13 12:29:43;;;;;;;;;;;24.50;99.90;;;;;;1902101;75;20146;-71
2021/08/13 12:32:10;;;;;;;;;;;24.50;99.90;;;;;;1892182;75;20225;-71
2021/08/13 12:34:37;;;;;;;;;;;24.70;99.90;;;;;;1881954;75;20390;-71
2021/08/13 12:37:08;;;;;;;;;;;24.70;99.90;;;;;;1876706;74;20469;-72
2021/08/13 12:39:39;;;;;;;;;;;24.60;99.90;;;;;;1896156;75;20177;-71
2021/08/13 12:42:08;;;;;;;;;;;24.70;99.90;;;;;;1881562;74;20181;-72
2021/08/13 12:44:35;;;;;;;;;;;24.60;99.90;;;;;;1896898;75;20115;-71
2021/08/13 12:47:02;;;;;;;;;;;24.50;99.90;;;;;;1896699;75;20199;-71
2021/08/13 12:49:29;;;;;;;;;;;24.50;99.90;;;;;;1897925;75;20169;-70
2021/08/13 12:52:14;;;;;;;;;;;24.50;99.90;;;;;;1901351;75;20530;-70
2021/08/13 12:54:42;;;;;;;;;;;24.50;99.90;;;;;;1898656;75;20170;-71
2021/08/13 12:57:13;;;;;;;;;;;24.80;99.90;;;;;;1901919;75;20511;-71
2021/08/13 12:59:41;;;;;;;;;;;24.70;99.90;;;;;;1879968;74;20441;-71
2021/08/13 13:02:10;;;;;;;;;;;24.60;99.90;;;;;;1883628;75;20227;-71
2021/08/13 13:04:40;;;;;;;;;;;24.60;99.90;;;;;;1895038;75;20475;-72
2021/08/13 13:07:08;;;;;;;;;;;24.40;99.90;;;;;;1891690;75;20168;-72
2021/08/13 13:09:36;;;;;;;;;;;24.30;99.90;;;;;;1886460;75;20169;-72
2021/08/13 13:12:16;;;;;;;;;;;24.30;99.90;;;;;;1901416;75;20177;-71
2021/08/13 13:14:43;;;;;;;;;;;24.20;99.90;;;;;;1901714;74;20205;-70
2021/08/13 13:17:10;;;;;;;;;;;24.20;99.90;;;;;;1900947;74;20189;-74
2021/08/13 13:19:38;;;;;;;;;;;24.30;99.90;;;;;;1894710;75;20268;-74
2021/08/13 13:22:15;;;;;;;;;;;24.30;99.90;;;;;;1882107;75;20162;-74
2021/08/13 13:24:42;;;;;;;;;;;24.40;99.90;;;;;;1901622;75;20170;-74
2021/08/13 13:27:09;;;;;;;;;;;24.40;99.90;;;;;;1901957;75;20201;-74
2021/08/13 13:29:38;;;;;;;;;;;24.30;99.90;;;;;;1901990;75;20247;-74
2021/08/13 13:32:12;;;;;;;;;;;24.30;99.90;;;;;;1901610;75;20157;-74
2021/08/13 13:34:39;;;;;;;;;;;24.20;99.90;;;;;;1900726;75;20142;-74
2021/08/13 13:37:13;;;;;;;;;;;24.20;99.90;;;;;;1890562;75;20173;-74
2021/08/13 13:39:40;;;;;;;;;;;24.20;99.90;;;;;;1879318;76;20503;-74
2021/08/13 13:42:07;;;;;;;;;;;24.20;99.90;;;;;;1885443;75;20727;-74
2021/08/13 13:44:34;;;;;;;;;;;24.00;99.90;;;;;;1889724;75;20189;-74
2021/08/13 13:47:01;;;;;;;;;;;24.00;99.90;;;;;;1873988;75;20125;-74
2021/08/13 13:49:28;;;;;;;;;;;24.00;99.90;;;;;;1871223;75;20575;-74
2021/08/13 13:51:55;;;;;;;;;;;24.00;99.90;;;;;;1871716;75;20210;-74
2021/08/13 13:54:23;;;;;;;;;;;23.90;99.90;;;;;;1881825;75;20320;-74
2021/08/13 13:56:51;;;;;;;;;;;23.90;99.90;;;;;;1900979;75;20181;-73
2021/08/13 13:59:17;;;;;;;;;;;23.90;99.90;;;;;;1901851;74;20177;-72
2021/08/13 14:01:44;;;;;;;;;;;23.90;99.90;;;;;;1888131;75;20178;-72
2021/08/13 14:04:11;;;;;;;;;;;23.80;99.90;;;;;;1880851;75;20219;-73
2021/08/13 14:06:38;;;;;;;;;;;23.80;99.90;;;;;;1895063;75;20236;-72
2021/08/13 14:09:05;;;;;;;;;;;23.80;99.90;;;;;;1885385;75;20468;-72
2021/08/13 14:11:31;;;;;;;;;;;23.80;99.90;;;;;;1888455;75;20115;-72
2021/08/13 14:14:01;;;;;;;;;;;24.00;99.90;;;;;;1888320;75;20492;-72
2021/08/13 14:16:27;;;;;;;;;;;24.10;99.90;;;;;;1893187;75;20276;-72
2021/08/13 14:18:54;;;;;;;;;;;24.10;99.90;;;;;;1892134;75;20169;-72
2021/08/13 14:21:20;;;;;;;;;;;24.10;99.90;;;;;;1893183;75;20232;-72